sensor_id;sensor_type;location;lat;lon;timestamp;temperature;humidity
10245;DHT22;5167;52.164;10.530;2022-07-05T00:02:06;20.50;5.00
10245;DHT22;5167;52.164;10.530;2022-07-05T00:04:32;20.50;5.00
10245;DHT22;5167;52.164;10.530;2022-07-05T00:06:57;20.40;5.00
10245;DHT22;5167;52.164;10.530;2022-07-05T00:09:41;20.50;5.00
10245;DHT22;5167;52.164;10.530;2022-07-05T00:12:08;20.40;5.00
10245;DHT22;5167;52.164;10.530;2022-07-05T00:14:33;20.40;5.00
10245;DHT22;5167;52.164;10.530;2022-07-05T00:16:59;20.40;5.00
10245;DHT22;5167;52.164;10.530;2022-07-05T00:19:24;20.30;5.00
10245;DHT22;5167;52.164;10.530;2022-07-05T00:21:50;20.40;5.00
10245;DHT22;5167;52.164;10.530;2022-07-05T00:24:15;20.30;5.00
10245;DHT22;5167;52.164;10.530;2022-07-05T00:26:41;20.30;5.00
10245;DHT22;5167;52.164;10.530;2022-07-05T00:29:06;20.30;5.00
10245;DHT22;5167;52.164;10.530;2022-07-05T00:31:32;20.30;5.00
10245;DHT22;5167;52.164;10.530;2022-07-05T00:33:57;20.30;5.00
10245;DHT22;5167;52.164;10.530;2022-07-05T00:36:23;20.20;5.00
10245;DHT22;5167;52.164;10.530;2022-07-05T00:38:48;20.20;5.00
10245;DHT22;5167;52.164;10.530;2022-07-05T00:41:14;20.20;5.00
10245;DHT22;5167;52.164;10.530;2022-07-05T00:44:15;20.20;5.00
10245;DHT22;5167;52.164;10.530;2022-07-05T00:46:45;20.00;5.00
10245;DHT22;5167;52.164;10.530;2022-07-05T00:49:10;20.10;5.00
10245;DHT22;5167;52.164;10.530;2022-07-05T00:51:37;20.10;5.00
10245;DHT22;5167;52.164;10.530;2022-07-05T00:54:05;20.00;5.00
10245;DHT22;5167;52.164;10.530;2022-07-05T00:56:31;20.10;5.00
10245;DHT22;5167;52.164;10.530;2022-07-05T00:58:57;20.00;5.00
10245;DHT22;5167;52.164;10.530;2022-07-05T01:01:23;20.00;5.00
10245;DHT22;5167;52.164;10.530;2022-07-05T01:03:51;20.00;5.00
10245;DHT22;5167;52.164;10.530;2022-07-05T01:06:17;20.00;5.00
10245;DHT22;5167;52.164;10.530;2022-07-05T01:08:44;20.00;5.00
10245;DHT22;5167;52.164;10.530;2022-07-05T01:11:10;20.00;5.00
10245;DHT22;5167;52.164;10.530;2022-07-05T01:13:37;19.90;5.00
10245;DHT22;5167;52.164;10.530;2022-07-05T01:16:03;19.80;5.00
10245;DHT22;5167;52.164;10.530;2022-07-05T01:18:29;19.80;5.00
10245;DHT22;5167;52.164;10.530;2022-07-05T01:20:57;19.70;5.00
10245;DHT22;5167;52.164;10.530;2022-07-05T01:23:23;19.70;5.00
10245;DHT22;5167;52.164;10.530;2022-07-05T01:25:49;19.70;5.00
10245;DHT22;5167;52.164;10.530;2022-07-05T01:28:15;19.60;5.00
10245;DHT22;5167;52.164;10.530;2022-07-05T01:30:42;19.60;5.00
10245;DHT22;5167;52.164;10.530;2022-07-05T01:33:09;19.60;5.00
10245;DHT22;5167;52.164;10.530;2022-07-05T01:35:35;19.50;5.30
10245;DHT22;5167;52.164;10.530;2022-07-05T01:38:01;19.50;5.20
10245;DHT22;5167;52.164;10.530;2022-07-05T01:40:27;19.50;5.40
10245;DHT22;5167;52.164;10.530;2022-07-05T01:42:52;19.50;5.00
10245;DHT22;5167;52.164;10.530;2022-07-05T01:45:18;19.50;5.50
10245;DHT22;5167;52.164;10.530;2022-07-05T01:48:09;19.40;5.00
10245;DHT22;5167;52.164;10.530;2022-07-05T01:53:17;19.40;5.40
10245;DHT22;5167;52.164;10.530;2022-07-05T01:55:42;19.30;5.70
10245;DHT22;5167;52.164;10.530;2022-07-05T01:58:08;19.30;5.40
10245;DHT22;5167;52.164;10.530;2022-07-05T02:00:51;19.30;6.30
10245;DHT22;5167;52.164;10.530;2022-07-05T02:03:17;19.20;6.10
10245;DHT22;5167;52.164;10.530;2022-07-05T02:05:44;19.20;6.80
10245;DHT22;5167;52.164;10.530;2022-07-05T02:08:10;19.20;6.80
10245;DHT22;5167;52.164;10.530;2022-07-05T02:10:37;19.10;7.20
10245;DHT22;5167;52.164;10.530;2022-07-05T02:13:03;19.20;7.50
10245;DHT22;5167;52.164;10.530;2022-07-05T02:15:33;19.10;8.30
10245;DHT22;5167;52.164;10.530;2022-07-05T02:18:00;19.10;7.90
10245;DHT22;5167;52.164;10.530;2022-07-05T02:20:26;19.10;8.30
10245;DHT22;5167;52.164;10.530;2022-07-05T02:22:51;19.10;8.70
10245;DHT22;5167;52.164;10.530;2022-07-05T02:25:17;19.10;8.80
10245;DHT22;5167;52.164;10.530;2022-07-05T02:27:42;19.10;9.10
10245;DHT22;5167;52.164;10.530;2022-07-05T02:30:08;19.10;9.50
10245;DHT22;5167;52.164;10.530;2022-07-05T02:32:34;19.00;9.00
10245;DHT22;5167;52.164;10.530;2022-07-05T02:34:59;19.00;9.30
10245;DHT22;5167;52.164;10.530;2022-07-05T02:37:26;19.00;9.30
10245;DHT22;5167;52.164;10.530;2022-07-05T02:39:52;19.00;9.50
10245;DHT22;5167;52.164;10.530;2022-07-05T02:42:17;18.90;9.70
10245;DHT22;5167;52.164;10.530;2022-07-05T02:44:43;18.90;9.80
10245;DHT22;5167;52.164;10.530;2022-07-05T02:47:08;18.80;10.20
10245;DHT22;5167;52.164;10.530;2022-07-05T02:49:34;18.80;9.90
10245;DHT22;5167;52.164;10.530;2022-07-05T02:51:59;18.80;10.40
10245;DHT22;5167;52.164;10.530;2022-07-05T02:54:25;18.80;10.50
10245;DHT22;5167;52.164;10.530;2022-07-05T02:56:50;18.80;10.50
10245;DHT22;5167;52.164;10.530;2022-07-05T02:59:16;18.70;11.90
10245;DHT22;5167;52.164;10.530;2022-07-05T03:01:42;18.70;11.40
10245;DHT22;5167;52.164;10.530;2022-07-05T03:04:07;18.70;11.60
10245;DHT22;5167;52.164;10.530;2022-07-05T03:06:35;18.60;11.60
10245;DHT22;5167;52.164;10.530;2022-07-05T03:09:01;18.60;11.80
10245;DHT22;5167;52.164;10.530;2022-07-05T03:11:30;18.60;11.80
10245;DHT22;5167;52.164;10.530;2022-07-05T03:13:56;18.50;11.80
10245;DHT22;5167;52.164;10.530;2022-07-05T03:16:22;18.50;12.30
10245;DHT22;5167;52.164;10.530;2022-07-05T03:18:50;18.50;12.20
10245;DHT22;5167;52.164;10.530;2022-07-05T03:21:17;18.50;11.70
10245;DHT22;5167;52.164;10.530;2022-07-05T03:23:43;18.40;12.70
10245;DHT22;5167;52.164;10.530;2022-07-05T03:26:12;18.40;12.70
10245;DHT22;5167;52.164;10.530;2022-07-05T03:28:38;18.40;12.80
10245;DHT22;5167;52.164;10.530;2022-07-05T03:31:03;18.30;13.00
10245;DHT22;5167;52.164;10.530;2022-07-05T03:33:29;18.20;12.80
10245;DHT22;5167;52.164;10.530;2022-07-05T03:35:54;18.20;12.90
10245;DHT22;5167;52.164;10.530;2022-07-05T03:38:20;18.20;13.50
10245;DHT22;5167;52.164;10.530;2022-07-05T03:40:45;18.10;13.30
10245;DHT22;5167;52.164;10.530;2022-07-05T03:43:11;18.20;13.50
10245;DHT22;5167;52.164;10.530;2022-07-05T03:45:36;18.20;13.50
10245;DHT22;5167;52.164;10.530;2022-07-05T03:48:02;18.10;13.40
10245;DHT22;5167;52.164;10.530;2022-07-05T03:50:28;18.10;13.30
10245;DHT22;5167;52.164;10.530;2022-07-05T03:52:54;18.10;13.10
10245;DHT22;5167;52.164;10.530;2022-07-05T03:55:19;18.00;13.10
10245;DHT22;5167;52.164;10.530;2022-07-05T03:57:45;17.90;13.70
10245;DHT22;5167;52.164;10.530;2022-07-05T04:00:12;17.90;13.30
10245;DHT22;5167;52.164;10.530;2022-07-05T04:02:38;17.80;13.20
10245;DHT22;5167;52.164;10.530;2022-07-05T04:05:04;17.90;13.50
10245;DHT22;5167;52.164;10.530;2022-07-05T04:07:30;17.70;10.80
10245;DHT22;5167;52.164;10.530;2022-07-05T04:09:56;17.80;13.80
10245;DHT22;5167;52.164;10.530;2022-07-05T04:12:22;17.80;14.10
10245;DHT22;5167;52.164;10.530;2022-07-05T04:14:47;17.80;14.40
10245;DHT22;5167;52.164;10.530;2022-07-05T04:17:13;17.80;14.30
10245;DHT22;5167;52.164;10.530;2022-07-05T04:19:38;17.80;14.60
10245;DHT22;5167;52.164;10.530;2022-07-05T04:22:04;17.80;14.50
10245;DHT22;5167;52.164;10.530;2022-07-05T04:24:29;17.80;14.60
10245;DHT22;5167;52.164;10.530;2022-07-05T04:26:55;17.80;14.60
10245;DHT22;5167;52.164;10.530;2022-07-05T04:29:20;17.80;15.00
10245;DHT22;5167;52.164;10.530;2022-07-05T04:31:46;17.90;12.50
10245;DHT22;5167;52.164;10.530;2022-07-05T04:34:11;17.90;14.90
10245;DHT22;5167;52.164;10.530;2022-07-05T04:36:37;17.90;15.10
10245;DHT22;5167;52.164;10.530;2022-07-05T04:39:06;17.90;14.90
10245;DHT22;5167;52.164;10.530;2022-07-05T04:41:31;17.90;14.90
10245;DHT22;5167;52.164;10.530;2022-07-05T04:43:57;18.10;15.10
10245;DHT22;5167;52.164;10.530;2022-07-05T04:46:23;18.20;15.00
10245;DHT22;5167;52.164;10.530;2022-07-05T04:48:48;18.20;14.10
10245;DHT22;5167;52.164;10.530;2022-07-05T04:51:14;18.60;11.80
10245;DHT22;5167;52.164;10.530;2022-07-05T04:53:39;18.60;14.10
10245;DHT22;5167;52.164;10.530;2022-07-05T04:56:05;18.50;14.10
10245;DHT22;5167;52.164;10.530;2022-07-05T04:58:31;18.50;14.80
10245;DHT22;5167;52.164;10.530;2022-07-05T05:00:57;18.50;14.70
10245;DHT22;5167;52.164;10.530;2022-07-05T05:03:22;18.40;14.70
10245;DHT22;5167;52.164;10.530;2022-07-05T05:05:47;18.50;15.00
10245;DHT22;5167;52.164;10.530;2022-07-05T05:08:13;18.50;15.20
10245;DHT22;5167;52.164;10.530;2022-07-05T05:10:39;18.60;15.00
10245;DHT22;5167;52.164;10.530;2022-07-05T05:13:04;18.60;15.20
10245;DHT22;5167;52.164;10.530;2022-07-05T05:15:30;18.50;15.20
10245;DHT22;5167;52.164;10.530;2022-07-05T05:17:55;18.50;15.20
10245;DHT22;5167;52.164;10.530;2022-07-05T05:20:21;18.50;15.30
10245;DHT22;5167;52.164;10.530;2022-07-05T05:22:47;18.50;15.70
10245;DHT22;5167;52.164;10.530;2022-07-05T05:25:13;18.60;15.80
10245;DHT22;5167;52.164;10.530;2022-07-05T05:27:46;18.60;16.00
10245;DHT22;5167;52.164;10.530;2022-07-05T05:30:13;18.60;15.80
10245;DHT22;5167;52.164;10.530;2022-07-05T05:32:39;18.60;15.40
10245;DHT22;5167;52.164;10.530;2022-07-05T05:35:05;18.70;15.30
10245;DHT22;5167;52.164;10.530;2022-07-05T05:37:30;18.80;15.00
10245;DHT22;5167;52.164;10.530;2022-07-05T05:39:56;18.80;14.90
10245;DHT22;5167;52.164;10.530;2022-07-05T05:42:21;18.90;15.20
10245;DHT22;5167;52.164;10.530;2022-07-05T05:44:47;19.00;14.60
10245;DHT22;5167;52.164;10.530;2022-07-05T05:47:13;19.00;15.20
10245;DHT22;5167;52.164;10.530;2022-07-05T05:49:38;19.20;14.70
10245;DHT22;5167;52.164;10.530;2022-07-05T05:52:04;19.40;14.70
10245;DHT22;5167;52.164;10.530;2022-07-05T05:54:29;19.40;14.30
10245;DHT22;5167;52.164;10.530;2022-07-05T05:56:55;19.40;13.70
10245;DHT22;5167;52.164;10.530;2022-07-05T05:59:20;19.60;12.40
10245;DHT22;5167;52.164;10.530;2022-07-05T06:01:46;19.60;12.40
10245;DHT22;5167;52.164;10.530;2022-07-05T06:04:11;19.70;12.50
10245;DHT22;5167;52.164;10.530;2022-07-05T06:06:37;20.00;12.60
10245;DHT22;5167;52.164;10.530;2022-07-05T06:09:02;20.10;12.80
10245;DHT22;5167;52.164;10.530;2022-07-05T06:11:28;20.30;11.50
10245;DHT22;5167;52.164;10.530;2022-07-05T06:13:53;20.30;10.40
10245;DHT22;5167;52.164;10.530;2022-07-05T06:16:19;20.50;9.80
10245;DHT22;5167;52.164;10.530;2022-07-05T06:18:44;20.60;9.20
10245;DHT22;5167;52.164;10.530;2022-07-05T06:21:10;20.60;8.90
10245;DHT22;5167;52.164;10.530;2022-07-05T06:23:36;20.70;9.40
10245;DHT22;5167;52.164;10.530;2022-07-05T06:26:01;20.70;9.60
10245;DHT22;5167;52.164;10.530;2022-07-05T06:28:27;20.80;9.60
10245;DHT22;5167;52.164;10.530;2022-07-05T06:30:52;21.00;8.70
10245;DHT22;5167;52.164;10.530;2022-07-05T06:33:19;21.10;7.50
10245;DHT22;5167;52.164;10.530;2022-07-05T06:35:44;21.20;5.40
10245;DHT22;5167;52.164;10.530;2022-07-05T06:38:10;21.20;5.60
10245;DHT22;5167;52.164;10.530;2022-07-05T06:40:37;21.30;5.70
10245;DHT22;5167;52.164;10.530;2022-07-05T06:43:05;21.30;5.60
10245;DHT22;5167;52.164;10.530;2022-07-05T06:45:31;21.40;5.40
10245;DHT22;5167;52.164;10.530;2022-07-05T06:47:58;21.60;5.60
10245;DHT22;5167;52.164;10.530;2022-07-05T06:50:32;21.70;5.00
10245;DHT22;5167;52.164;10.530;2022-07-05T06:52:58;21.80;5.00
10245;DHT22;5167;52.164;10.530;2022-07-05T06:55:24;22.00;5.00
10245;DHT22;5167;52.164;10.530;2022-07-05T06:58:00;22.10;5.00
10245;DHT22;5167;52.164;10.530;2022-07-05T07:00:26;22.10;5.00
10245;DHT22;5167;52.164;10.530;2022-07-05T07:02:52;22.10;5.00
10245;DHT22;5167;52.164;10.530;2022-07-05T07:05:18;22.10;5.00
10245;DHT22;5167;52.164;10.530;2022-07-05T07:07:43;22.10;5.00
10245;DHT22;5167;52.164;10.530;2022-07-05T07:10:28;22.20;5.00
10245;DHT22;5167;52.164;10.530;2022-07-05T07:12:53;22.20;5.00
10245;DHT22;5167;52.164;10.530;2022-07-05T07:15:19;22.20;5.00
10245;DHT22;5167;52.164;10.530;2022-07-05T07:17:44;22.20;5.00
10245;DHT22;5167;52.164;10.530;2022-07-05T07:20:10;22.20;5.00
10245;DHT22;5167;52.164;10.530;2022-07-05T07:22:36;22.30;5.00
10245;DHT22;5167;52.164;10.530;2022-07-05T07:25:02;22.40;5.00
10245;DHT22;5167;52.164;10.530;2022-07-05T07:27:28;22.40;5.00
10245;DHT22;5167;52.164;10.530;2022-07-05T07:29:53;22.50;5.00
10245;DHT22;5167;52.164;10.530;2022-07-05T07:32:19;22.60;5.00
10245;DHT22;5167;52.164;10.530;2022-07-05T07:34:44;22.80;5.00
10245;DHT22;5167;52.164;10.530;2022-07-05T07:37:10;22.80;5.00
10245;DHT22;5167;52.164;10.530;2022-07-05T07:39:39;22.80;5.00
10245;DHT22;5167;52.164;10.530;2022-07-05T07:42:05;22.90;5.00
10245;DHT22;5167;52.164;10.530;2022-07-05T07:44:31;22.90;5.00
10245;DHT22;5167;52.164;10.530;2022-07-05T07:46:56;23.00;5.00
10245;DHT22;5167;52.164;10.530;2022-07-05T07:49:22;23.00;5.00
10245;DHT22;5167;52.164;10.530;2022-07-05T07:51:47;23.20;5.00
10245;DHT22;5167;52.164;10.530;2022-07-05T07:54:13;23.00;5.00
10245;DHT22;5167;52.164;10.530;2022-07-05T07:56:38;23.10;5.00
10245;DHT22;5167;52.164;10.530;2022-07-05T07:59:04;23.20;5.00
10245;DHT22;5167;52.164;10.530;2022-07-05T08:01:30;23.30;5.00
10245;DHT22;5167;52.164;10.530;2022-07-05T08:03:56;23.30;5.00
10245;DHT22;5167;52.164;10.530;2022-07-05T08:06:22;23.30;5.00
10245;DHT22;5167;52.164;10.530;2022-07-05T08:08:47;23.30;5.00
10245;DHT22;5167;52.164;10.530;2022-07-05T08:11:13;23.30;5.00
10245;DHT22;5167;52.164;10.530;2022-07-05T08:13:40;23.40;5.00
10245;DHT22;5167;52.164;10.530;2022-07-05T08:16:07;23.50;5.00
10245;DHT22;5167;52.164;10.530;2022-07-05T08:18:33;23.60;5.00
10245;DHT22;5167;52.164;10.530;2022-07-05T08:21:17;23.70;5.00
10245;DHT22;5167;52.164;10.530;2022-07-05T08:24:03;23.90;5.00
10245;DHT22;5167;52.164;10.530;2022-07-05T08:26:29;24.20;5.00
10245;DHT22;5167;52.164;10.530;2022-07-05T08:28:58;24.30;5.00
10245;DHT22;5167;52.164;10.530;2022-07-05T08:31:26;24.30;5.00
10245;DHT22;5167;52.164;10.530;2022-07-05T08:33:51;24.40;5.00
10245;DHT22;5167;52.164;10.530;2022-07-05T08:36:17;24.40;5.00
10245;DHT22;5167;52.164;10.530;2022-07-05T08:38:43;24.50;5.00
10245;DHT22;5167;52.164;10.530;2022-07-05T08:41:10;24.40;5.00
10245;DHT22;5167;52.164;10.530;2022-07-05T08:43:37;24.40;5.00
10245;DHT22;5167;52.164;10.530;2022-07-05T08:46:06;24.40;5.00
10245;DHT22;5167;52.164;10.530;2022-07-05T08:48:38;24.40;5.00
10245;DHT22;5167;52.164;10.530;2022-07-05T08:51:28;24.30;5.00
10245;DHT22;5167;52.164;10.530;2022-07-05T08:53:54;24.40;5.00
10245;DHT22;5167;52.164;10.530;2022-07-05T08:56:21;24.60;5.00
10245;DHT22;5167;52.164;10.530;2022-07-05T08:58:47;24.70;5.00
10245;DHT22;5167;52.164;10.530;2022-07-05T09:01:14;24.90;5.00
10245;DHT22;5167;52.164;10.530;2022-07-05T09:03:47;25.00;5.00
10245;DHT22;5167;52.164;10.530;2022-07-05T09:06:21;25.10;5.00
10245;DHT22;5167;52.164;10.530;2022-07-05T09:08:48;25.30;5.00
10245;DHT22;5167;52.164;10.530;2022-07-05T09:11:16;25.50;5.00
10245;DHT22;5167;52.164;10.530;2022-07-05T09:13:45;25.30;5.00
10245;DHT22;5167;52.164;10.530;2022-07-05T09:16:13;25.30;5.00
10245;DHT22;5167;52.164;10.530;2022-07-05T09:21:19;25.40;5.00
10245;DHT22;5167;52.164;10.530;2022-07-05T09:23:56;25.50;5.00
10245;DHT22;5167;52.164;10.530;2022-07-05T09:29:19;25.50;5.00
10245;DHT22;5167;52.164;10.530;2022-07-05T09:31:47;25.50;5.00
10245;DHT22;5167;52.164;10.530;2022-07-05T09:34:19;25.40;5.00
10245;DHT22;5167;52.164;10.530;2022-07-05T09:37:01;25.30;5.00
10245;DHT22;5167;52.164;10.530;2022-07-05T09:44:52;25.30;5.00
10245;DHT22;5167;52.164;10.530;2022-07-05T09:47:20;25.40;5.00
10245;DHT22;5167;52.164;10.530;2022-07-05T09:49:50;25.50;5.00
10245;DHT22;5167;52.164;10.530;2022-07-05T09:52:37;25.70;5.00
10245;DHT22;5167;52.164;10.530;2022-07-05T09:57:33;26.00;5.00
10245;DHT22;5167;52.164;10.530;2022-07-05T10:00:18;26.10;5.00
10245;DHT22;5167;52.164;10.530;2022-07-05T10:02:49;26.00;5.00
10245;DHT22;5167;52.164;10.530;2022-07-05T10:05:26;26.10;5.00
10245;DHT22;5167;52.164;10.530;2022-07-05T10:07:56;26.20;5.00
10245;DHT22;5167;52.164;10.530;2022-07-05T10:10:24;26.30;5.00
10245;DHT22;5167;52.164;10.530;2022-07-05T10:12:52;26.40;5.00
10245;DHT22;5167;52.164;10.530;2022-07-05T10:15:26;26.50;5.00
10245;DHT22;5167;52.164;10.530;2022-07-05T10:18:02;26.70;5.00
10245;DHT22;5167;52.164;10.530;2022-07-05T10:20:42;26.80;5.00
10245;DHT22;5167;52.164;10.530;2022-07-05T10:25:37;27.20;5.00
10245;DHT22;5167;52.164;10.530;2022-07-05T10:28:03;26.90;5.00
10245;DHT22;5167;52.164;10.530;2022-07-05T10:30:29;27.00;5.00
10245;DHT22;5167;52.164;10.530;2022-07-05T10:32:56;27.10;5.00
10245;DHT22;5167;52.164;10.530;2022-07-05T10:35:22;27.20;5.00
10245;DHT22;5167;52.164;10.530;2022-07-05T10:37:48;27.40;5.00
10245;DHT22;5167;52.164;10.530;2022-07-05T10:40:15;27.40;5.00
10245;DHT22;5167;52.164;10.530;2022-07-05T10:42:46;27.40;5.00
10245;DHT22;5167;52.164;10.530;2022-07-05T10:48:19;27.40;5.00
10245;DHT22;5167;52.164;10.530;2022-07-05T10:50:47;27.30;5.00
10245;DHT22;5167;52.164;10.530;2022-07-05T10:53:14;27.20;5.00
10245;DHT22;5167;52.164;10.530;2022-07-05T10:55:54;27.10;5.00
10245;DHT22;5167;52.164;10.530;2022-07-05T11:11:46;27.50;5.00
10245;DHT22;5167;52.164;10.530;2022-07-05T11:16:44;27.40;5.00
10245;DHT22;5167;52.164;10.530;2022-07-05T11:19:12;27.40;5.00
10245;DHT22;5167;52.164;10.530;2022-07-05T11:21:39;27.30;5.00
10245;DHT22;5167;52.164;10.530;2022-07-05T11:24:26;27.30;5.00
10245;DHT22;5167;52.164;10.530;2022-07-05T11:26:53;27.40;5.00
10245;DHT22;5167;52.164;10.530;2022-07-05T11:32:08;27.40;5.00
10245;DHT22;5167;52.164;10.530;2022-07-05T11:34:34;27.30;5.00
10245;DHT22;5167;52.164;10.530;2022-07-05T11:37:19;27.20;5.00
10245;DHT22;5167;52.164;10.530;2022-07-05T11:42:32;27.30;5.00
10245;DHT22;5167;52.164;10.530;2022-07-05T11:45:00;27.20;5.00
10245;DHT22;5167;52.164;10.530;2022-07-05T11:47:27;27.20;5.00
10245;DHT22;5167;52.164;10.530;2022-07-05T11:49:57;27.20;5.00
10245;DHT22;5167;52.164;10.530;2022-07-05T11:52:30;27.20;5.00
10245;DHT22;5167;52.164;10.530;2022-07-05T11:54:57;27.30;5.00
10245;DHT22;5167;52.164;10.530;2022-07-05T11:57:23;27.30;5.00
10245;DHT22;5167;52.164;10.530;2022-07-05T11:59:50;27.30;5.00
10245;DHT22;5167;52.164;10.530;2022-07-05T12:02:15;27.30;5.00
10245;DHT22;5167;52.164;10.530;2022-07-05T12:04:47;27.30;5.00
10245;DHT22;5167;52.164;10.530;2022-07-05T12:07:24;27.20;5.00
10245;DHT22;5167;52.164;10.530;2022-07-05T12:09:51;27.30;5.00
10245;DHT22;5167;52.164;10.530;2022-07-05T12:12:35;27.40;5.00
10245;DHT22;5167;52.164;10.530;2022-07-05T12:15:17;27.40;5.00
10245;DHT22;5167;52.164;10.530;2022-07-05T12:17:44;27.40;5.00
10245;DHT22;5167;52.164;10.530;2022-07-05T12:20:13;27.40;5.00
10245;DHT22;5167;52.164;10.530;2022-07-05T12:22:43;27.40;5.00
10245;DHT22;5167;52.164;10.530;2022-07-05T12:25:12;27.30;5.00
10245;DHT22;5167;52.164;10.530;2022-07-05T12:27:39;27.30;5.00
10245;DHT22;5167;52.164;10.530;2022-07-05T12:30:07;27.30;5.00
10245;DHT22;5167;52.164;10.530;2022-07-05T12:32:34;27.30;5.00
10245;DHT22;5167;52.164;10.530;2022-07-05T12:35:38;27.30;5.00
10245;DHT22;5167;52.164;10.530;2022-07-05T12:38:11;27.20;5.00
10245;DHT22;5167;52.164;10.530;2022-07-05T12:40:41;27.10;5.00
10245;DHT22;5167;52.164;10.530;2022-07-05T12:43:13;27.10;5.00
10245;DHT22;5167;52.164;10.530;2022-07-05T12:45:40;27.00;5.00
10245;DHT22;5167;52.164;10.530;2022-07-05T12:48:08;26.90;5.00
10245;DHT22;5167;52.164;10.530;2022-07-05T12:50:48;27.00;5.00
10245;DHT22;5167;52.164;10.530;2022-07-05T12:53:15;27.00;5.00
10245;DHT22;5167;52.164;10.530;2022-07-05T12:56:03;27.10;5.00
10245;DHT22;5167;52.164;10.530;2022-07-05T12:58:58;27.00;5.00
10245;DHT22;5167;52.164;10.530;2022-07-05T13:01:30;26.90;5.00
10245;DHT22;5167;52.164;10.530;2022-07-05T13:06:53;26.80;5.00
10245;DHT22;5167;52.164;10.530;2022-07-05T13:12:18;26.60;5.00
10245;DHT22;5167;52.164;10.530;2022-07-05T13:14:52;26.60;5.00
10245;DHT22;5167;52.164;10.530;2022-07-05T13:17:19;26.60;5.00
10245;DHT22;5167;52.164;10.530;2022-07-05T13:19:49;26.60;5.00
10245;DHT22;5167;52.164;10.530;2022-07-05T13:22:15;26.70;5.00
10245;DHT22;5167;52.164;10.530;2022-07-05T13:24:42;26.70;5.00
10245;DHT22;5167;52.164;10.530;2022-07-05T13:27:08;26.50;5.00
10245;DHT22;5167;52.164;10.530;2022-07-05T13:29:34;26.50;5.00
10245;DHT22;5167;52.164;10.530;2022-07-05T13:32:00;26.50;5.00
10245;DHT22;5167;52.164;10.530;2022-07-05T13:34:25;26.50;5.00
10245;DHT22;5167;52.164;10.530;2022-07-05T13:36:52;26.60;5.00
10245;DHT22;5167;52.164;10.530;2022-07-05T13:39:21;26.60;5.00
10245;DHT22;5167;52.164;10.530;2022-07-05T13:41:48;26.50;5.00
10245;DHT22;5167;52.164;10.530;2022-07-05T13:44:14;26.50;5.00
10245;DHT22;5167;52.164;10.530;2022-07-05T13:46:40;26.50;5.00
10245;DHT22;5167;52.164;10.530;2022-07-05T13:49:06;26.50;5.00
10245;DHT22;5167;52.164;10.530;2022-07-05T13:51:31;26.60;5.00
10245;DHT22;5167;52.164;10.530;2022-07-05T13:53:57;26.60;5.00
10245;DHT22;5167;52.164;10.530;2022-07-05T13:56:22;26.60;5.00
10245;DHT22;5167;52.164;10.530;2022-07-05T13:58:48;26.50;5.00
10245;DHT22;5167;52.164;10.530;2022-07-05T14:01:14;26.50;5.00
10245;DHT22;5167;52.164;10.530;2022-07-05T14:03:39;26.50;5.00
10245;DHT22;5167;52.164;10.530;2022-07-05T14:06:05;26.50;5.00
10245;DHT22;5167;52.164;10.530;2022-07-05T14:08:30;26.50;5.00
10245;DHT22;5167;52.164;10.530;2022-07-05T14:10:56;26.40;5.00
10245;DHT22;5167;52.164;10.530;2022-07-05T14:13:23;26.20;5.00
10245;DHT22;5167;52.164;10.530;2022-07-05T14:15:49;26.20;5.00
10245;DHT22;5167;52.164;10.530;2022-07-05T14:18:16;26.20;5.00
10245;DHT22;5167;52.164;10.530;2022-07-05T14:20:43;26.10;5.00
10245;DHT22;5167;52.164;10.530;2022-07-05T14:23:09;26.20;5.00
10245;DHT22;5167;52.164;10.530;2022-07-05T14:25:36;26.10;5.00
10245;DHT22;5167;52.164;10.530;2022-07-05T14:28:02;26.10;5.00
10245;DHT22;5167;52.164;10.530;2022-07-05T14:30:33;26.10;5.00
10245;DHT22;5167;52.164;10.530;2022-07-05T14:32:58;26.10;5.00
10245;DHT22;5167;52.164;10.530;2022-07-05T14:35:24;26.10;5.00
10245;DHT22;5167;52.164;10.530;2022-07-05T14:37:49;26.10;5.00
10245;DHT22;5167;52.164;10.530;2022-07-05T14:40:15;26.10;5.00
10245;DHT22;5167;52.164;10.530;2022-07-05T14:42:40;26.10;5.00
10245;DHT22;5167;52.164;10.530;2022-07-05T14:45:06;26.10;5.00
10245;DHT22;5167;52.164;10.530;2022-07-05T14:47:32;26.10;5.00
10245;DHT22;5167;52.164;10.530;2022-07-05T14:49:57;26.10;5.00
10245;DHT22;5167;52.164;10.530;2022-07-05T14:52:23;26.10;5.00
10245;DHT22;5167;52.164;10.530;2022-07-05T14:54:48;26.00;5.00
10245;DHT22;5167;52.164;10.530;2022-07-05T14:57:14;26.10;5.00
10245;DHT22;5167;52.164;10.530;2022-07-05T14:59:40;26.10;5.00
10245;DHT22;5167;52.164;10.530;2022-07-05T15:02:07;26.10;5.00
10245;DHT22;5167;52.164;10.530;2022-07-05T15:04:34;26.10;5.00
10245;DHT22;5167;52.164;10.530;2022-07-05T15:06:59;26.20;5.00
10245;DHT22;5167;52.164;10.530;2022-07-05T15:09:25;26.10;5.00
10245;DHT22;5167;52.164;10.530;2022-07-05T15:11:50;26.10;5.00
10245;DHT22;5167;52.164;10.530;2022-07-05T15:14:17;26.10;5.00
10245;DHT22;5167;52.164;10.530;2022-07-05T15:16:42;26.10;5.00
10245;DHT22;5167;52.164;10.530;2022-07-05T15:19:08;26.00;5.00
10245;DHT22;5167;52.164;10.530;2022-07-05T15:21:34;26.00;5.00
10245;DHT22;5167;52.164;10.530;2022-07-05T15:24:00;26.10;5.00
10245;DHT22;5167;52.164;10.530;2022-07-05T15:26:27;26.10;5.00
10245;DHT22;5167;52.164;10.530;2022-07-05T15:29:04;26.10;5.00
10245;DHT22;5167;52.164;10.530;2022-07-05T15:31:31;26.20;5.00
10245;DHT22;5167;52.164;10.530;2022-07-05T15:34:03;26.10;5.00
10245;DHT22;5167;52.164;10.530;2022-07-05T15:36:29;26.10;5.00
10245;DHT22;5167;52.164;10.530;2022-07-05T15:39:03;26.10;5.00
10245;DHT22;5167;52.164;10.530;2022-07-05T15:41:29;26.10;5.00
10245;DHT22;5167;52.164;10.530;2022-07-05T15:43:55;26.10;5.00
10245;DHT22;5167;52.164;10.530;2022-07-05T15:46:21;26.00;5.00
10245;DHT22;5167;52.164;10.530;2022-07-05T15:48:46;26.00;5.00
10245;DHT22;5167;52.164;10.530;2022-07-05T15:51:14;25.90;5.00
10245;DHT22;5167;52.164;10.530;2022-07-05T15:53:41;25.80;5.00
10245;DHT22;5167;52.164;10.530;2022-07-05T15:56:07;25.80;5.00
10245;DHT22;5167;52.164;10.530;2022-07-05T15:58:32;25.80;5.00
10245;DHT22;5167;52.164;10.530;2022-07-05T16:00:59;25.80;5.00
10245;DHT22;5167;52.164;10.530;2022-07-05T16:03:25;25.90;5.00
10245;DHT22;5167;52.164;10.530;2022-07-05T16:05:51;25.90;5.00
10245;DHT22;5167;52.164;10.530;2022-07-05T16:08:18;25.90;5.00
10245;DHT22;5167;52.164;10.530;2022-07-05T16:10:43;25.90;5.00
10245;DHT22;5167;52.164;10.530;2022-07-05T16:13:09;25.80;5.00
10245;DHT22;5167;52.164;10.530;2022-07-05T16:15:38;25.90;5.00
10245;DHT22;5167;52.164;10.530;2022-07-05T16:18:22;25.80;5.00
10245;DHT22;5167;52.164;10.530;2022-07-05T16:20:48;25.90;5.00
10245;DHT22;5167;52.164;10.530;2022-07-05T16:23:14;25.80;5.00
10245;DHT22;5167;52.164;10.530;2022-07-05T16:25:39;25.70;5.00
10245;DHT22;5167;52.164;10.530;2022-07-05T16:28:05;25.80;5.00
10245;DHT22;5167;52.164;10.530;2022-07-05T16:30:31;26.00;5.00
10245;DHT22;5167;52.164;10.530;2022-07-05T16:32:56;25.80;5.00
10245;DHT22;5167;52.164;10.530;2022-07-05T16:35:22;25.90;5.00